Tamara — HOEH — position and weather

sailwx.info

Track history (hours):
 
Tides and Currents Weather Stations Pressure Air Temp Water Temp Dewpoint Dewpoint Depression Visibility Wind Speed Wind Dir Waves Ship Positions

Tamara

Last reported at 2016-Dec-03 23:14 UTC. Time now 2016-Dec-04 04:00 UTC.
Position N 35°50' E 014°50'.

Length 117 m; draft 5.4 m.

Type: Ship (hazmat cat A). MMSI: 353900000.

Date/timePositionNaut miles runAvg speedWind from/ knotsBaromVisibWave heightAir tempDewpointWater temp
2016-Dec-03 23:14N 35°50' E 014°50'0 0.0
2016-Dec-03 14:14N 35°50' E 014°50'0 0.0
2016-Dec-03 13:29N 35°50' E 014°50'0 0.0
2016-Dec-03 12:23N 35°50' E 014°50'0 0.0
2016-Dec-03 09:23N 35°50' E 014°50'12 0.7
2016-Dec-02 17:19N 35°49' E 014°35'0 0.1
2016-Dec-02 16:26N 35°49' E 014°36'0 0.0
2016-Dec-02 15:29N 35°49' E 014°36'0 0.0
2016-Dec-02 13:29N 35°49' E 014°36'0 0.0
2016-Dec-02 09:05N 35°49' E 014°35'0 0.0
2016-Dec-02 07:32N 35°49' E 014°35'0 0.0
2016-Dec-02 06:23N 35°49' E 014°35'0 0.1
2016-Dec-02 05:32N 35°49' E 014°35'5 4.8
2016-Dec-02 04:32N 35°49' E 014°41'7 3.2
2016-Dec-02 02:22N 35°50' E 014°50'0 0.0
2016-Dec-02 00:31N 35°50' E 014°50'0 0.0
2016-Dec-01 23:07N 35°50' E 014°50'0 0.1
2016-Dec-01 22:22N 35°50' E 014°50'0 0.0
2016-Dec-01 20:31N 35°50' E 014°50'0 0.0
2016-Dec-01 18:10N 35°50' E 014°50'0 0.0
2016-Dec-01 17:07N 35°50' E 014°50'0 0.0
2016-Dec-01 13:16N 35°50' E 014°50'0 0.0
2016-Dec-01 12:10N 35°50' E 014°50'  
Track history (hours):
 
Tides and Currents Weather Stations Pressure Air Temp Water Temp Dewpoint Dewpoint Depression Visibility Wind Speed Wind Dir Waves Ship Positions

Tamara

Last reported at 2016-Dec-03 23:14 UTC. Time now 2016-Dec-04 04:00 UTC.
Position N 35°50' E 014°50'.

Length 117 m; draft 5.4 m.

Type: Ship (hazmat cat A). MMSI: 353900000.

Date/timePositionNaut miles runAvg speedWind from/ knotsBaromVisibWave heightAir tempDewpointWater temp
2016-Dec-03 23:14N 35°50' E 014°50'0 0.0
2016-Dec-03 14:14N 35°50' E 014°50'0 0.0
2016-Dec-03 13:29N 35°50' E 014°50'0 0.0
2016-Dec-03 12:23N 35°50' E 014°50'0 0.0
2016-Dec-03 09:23N 35°50' E 014°50'12 0.7
2016-Dec-02 17:19N 35°49' E 014°35'0 0.1
2016-Dec-02 16:26N 35°49' E 014°36'0 0.0
2016-Dec-02 15:29N 35°49' E 014°36'0 0.0
2016-Dec-02 13:29N 35°49' E 014°36'0 0.0
2016-Dec-02 09:05N 35°49' E 014°35'0 0.0
2016-Dec-02 07:32N 35°49' E 014°35'0 0.0
2016-Dec-02 06:23N 35°49' E 014°35'0 0.1
2016-Dec-02 05:32N 35°49' E 014°35'5 4.8
2016-Dec-02 04:32N 35°49' E 014°41'7 3.2
2016-Dec-02 02:22N 35°50' E 014°50'0 0.0
2016-Dec-02 00:31N 35°50' E 014°50'0 0.0
2016-Dec-01 23:07N 35°50' E 014°50'0 0.1
2016-Dec-01 22:22N 35°50' E 014°50'0 0.0
2016-Dec-01 20:31N 35°50' E 014°50'0 0.0
2016-Dec-01 18:10N 35°50' E 014°50'0 0.0
2016-Dec-01 17:07N 35°50' E 014°50'0 0.0
2016-Dec-01 13:16N 35°50' E 014°50'0 0.0
2016-Dec-01 12:10N 35°50' E 014°50'  

Dump ship's entire track history